Flight Briefing for CPX228

Departure Arrival
Ted Stevens Anchorage International Airport (PANC)
Click to view FAA NOTAMS
Seattle-Tacoma International Airport (KSEA)
Click to view FAA NOTAMS
Departure Time Arrival Time
0000 UTC 0330 UTC
Aircraft Distance
B767-300BDSF 1257nm
Departure METAR Arrival METAR
PANC 221153Z 15008KT 10SM FEW065 06/01 A2947 RMK AO2 SLP982 60000 T00560006 10067 20028 50000 KSEA 221153Z 25004KT 10SM BKN046 BKN120 09/06 A2996 RMK AO2 SLP152 T00890056 10106 20083 56018
Suggested Route
NOEND4 NOEND LAIRE BKA DUGGS YYJ MARNR7


View recent IFR Routes data
Notes



Charts and Procedures

Charts for PANC
No chart available
Charts for KSEA
No chart available

Windy.com Weather Map